sensor_id;sensor_type;location;lat;lon;timestamp;pressure;altitude;pressure_sealevel;temperature;humidity
33949;BME280;20229;49.856;19.030;2024-01-06T00:03:08;100530.59;;;2.11;100.00
33949;BME280;20229;49.856;19.030;2024-01-06T00:08:23;100548.56;;;2.11;100.00
33949;BME280;20229;49.856;19.030;2024-01-06T00:13:38;100520.70;;;2.12;100.00
33949;BME280;20229;49.856;19.030;2024-01-06T00:18:53;100509.93;;;2.12;100.00
33949;BME280;20229;49.856;19.030;2024-01-06T00:24:08;100511.73;;;2.13;100.00
33949;BME280;20229;49.856;19.030;2024-01-06T00:29:22;100504.53;;;2.13;100.00
33949;BME280;20229;49.856;19.030;2024-01-06T00:34:36;100500.88;;;2.16;100.00
33949;BME280;20229;49.856;19.030;2024-01-06T00:39:51;100494.57;;;2.17;100.00
33949;BME280;20229;49.856;19.030;2024-01-06T00:45:05;100491.80;;;2.20;100.00
33949;BME280;20229;49.856;19.030;2024-01-06T00:50:20;100513.41;;;2.17;100.00
33949;BME280;20229;49.856;19.030;2024-01-06T00:55:34;100512.55;;;2.15;100.00
33949;BME280;20229;49.856;19.030;2024-01-06T01:00:48;100508.17;;;2.11;100.00
33949;BME280;20229;49.856;19.030;2024-01-06T01:06:03;100501.17;;;2.04;100.00
33949;BME280;20229;49.856;19.030;2024-01-06T01:11:19;100494.16;;;1.98;100.00
33949;BME280;20229;49.856;19.030;2024-01-06T01:16:34;100510.20;;;2.01;100.00
33949;BME280;20229;49.856;19.030;2024-01-06T01:21:54;100504.87;;;2.00;100.00
33949;BME280;20229;49.856;19.030;2024-01-06T01:27:09;100520.09;;;2.01;100.00
33949;BME280;20229;49.856;19.030;2024-01-06T01:32:23;100524.57;;;2.02;100.00
33949;BME280;20229;49.856;19.030;2024-01-06T01:37:37;100520.88;;;2.06;100.00
33949;BME280;20229;49.856;19.030;2024-01-06T01:42:51;100511.87;;;2.07;100.00
33949;BME280;20229;49.856;19.030;2024-01-06T01:48:05;100522.56;;;2.10;100.00
33949;BME280;20229;49.856;19.030;2024-01-06T01:53:20;100506.41;;;2.10;100.00
33949;BME280;20229;49.856;19.030;2024-01-06T01:58:41;100527.88;;;2.13;100.00
33949;BME280;20229;49.856;19.030;2024-01-06T02:03:56;100533.22;;;2.14;100.00
33949;BME280;20229;49.856;19.030;2024-01-06T02:09:11;100535.84;;;2.18;100.00
33949;BME280;20229;49.856;19.030;2024-01-06T02:14:25;100542.09;;;2.20;100.00
33949;BME280;20229;49.856;19.030;2024-01-06T02:19:40;100540.12;;;2.26;100.00
33949;BME280;20229;49.856;19.030;2024-01-06T02:24:54;100542.77;;;2.28;100.00
33949;BME280;20229;49.856;19.030;2024-01-06T02:30:09;100530.98;;;2.32;100.00
33949;BME280;20229;49.856;19.030;2024-01-06T02:35:23;100533.68;;;2.32;100.00
33949;BME280;20229;49.856;19.030;2024-01-06T02:40:38;100513.89;;;2.33;100.00
33949;BME280;20229;49.856;19.030;2024-01-06T02:45:52;100523.79;;;2.32;100.00
33949;BME280;20229;49.856;19.030;2024-01-06T02:51:06;100512.93;;;2.35;100.00
33949;BME280;20229;49.856;19.030;2024-01-06T02:56:20;100515.50;;;2.40;100.00
33949;BME280;20229;49.856;19.030;2024-01-06T03:01:34;100501.97;;;2.43;100.00
33949;BME280;20229;49.856;19.030;2024-01-06T03:06:51;100501.06;;;2.44;100.00
33949;BME280;20229;49.856;19.030;2024-01-06T03:12:07;100496.54;;;2.45;100.00
33949;BME280;20229;49.856;19.030;2024-01-06T03:17:21;100500.92;;;2.49;100.00
33949;BME280;20229;49.856;19.030;2024-01-06T03:22:36;100498.26;;;2.47;100.00
33949;BME280;20229;49.856;19.030;2024-01-06T03:27:51;100500.14;;;2.44;100.00
33949;BME280;20229;49.856;19.030;2024-01-06T03:33:06;100500.06;;;2.47;100.00
33949;BME280;20229;49.856;19.030;2024-01-06T03:38:20;100500.06;;;2.47;100.00
33949;BME280;20229;49.856;19.030;2024-01-06T03:43:34;100490.07;;;2.52;100.00
33949;BME280;20229;49.856;19.030;2024-01-06T03:48:48;100489.05;;;2.56;100.00
33949;BME280;20229;49.856;19.030;2024-01-06T03:54:02;100495.16;;;2.62;100.00
33949;BME280;20229;49.856;19.030;2024-01-06T03:59:16;100500.56;;;2.62;100.00
33949;BME280;20229;49.856;19.030;2024-01-06T04:04:30;100509.43;;;2.66;100.00
33949;BME280;20229;49.856;19.030;2024-01-06T04:09:45;100509.30;;;2.71;100.00
33949;BME280;20229;49.856;19.030;2024-01-06T04:15:00;100513.66;;;2.76;100.00
33949;BME280;20229;49.856;19.030;2024-01-06T04:20:14;100513.58;;;2.79;100.00
33949;BME280;20229;49.856;19.030;2024-01-06T04:25:29;100517.95;;;2.83;100.00
33949;BME280;20229;49.856;19.030;2024-01-06T04:30:43;100519.66;;;2.86;100.00
33949;BME280;20229;49.856;19.030;2024-01-06T04:35:57;100516.94;;;2.87;100.00
33949;BME280;20229;49.856;19.030;2024-01-06T04:41:13;100517.76;;;2.90;100.00
33949;BME280;20229;49.856;19.030;2024-01-06T04:46:27;100515.92;;;2.92;100.00
33949;BME280;20229;49.856;19.030;2024-01-06T04:51:41;100510.58;;;2.90;100.00
33949;BME280;20229;49.856;19.030;2024-01-06T04:56:55;100496.08;;;2.94;100.00
33949;BME280;20229;49.856;19.030;2024-01-06T05:02:12;100498.72;;;2.96;100.00
33949;BME280;20229;49.856;19.030;2024-01-06T05:12:59;100489.61;;;3.00;100.00
33949;BME280;20229;49.856;19.030;2024-01-06T05:18:12;100487.68;;;3.05;100.00
33949;BME280;20229;49.856;19.030;2024-01-06T05:23:27;100515.47;;;3.07;100.00
33949;BME280;20229;49.856;19.030;2024-01-06T05:28:42;100525.15;;;3.14;100.00
33949;BME280;20229;49.856;19.030;2024-01-06T05:33:56;100524.27;;;3.14;100.00
33949;BME280;20229;49.856;19.030;2024-01-06T05:39:11;100529.63;;;3.15;100.00
33949;BME280;20229;49.856;19.030;2024-01-06T05:44:25;100535.85;;;3.17;100.00
33949;BME280;20229;49.856;19.030;2024-01-06T05:49:41;100537.66;;;3.18;100.00
33949;BME280;20229;49.856;19.030;2024-01-06T05:54:59;100540.27;;;3.20;100.00
33949;BME280;20229;49.856;19.030;2024-01-06T06:00:14;100542.93;;;3.21;100.00
33949;BME280;20229;49.856;19.030;2024-01-06T06:05:30;100547.41;;;3.22;100.00
33949;BME280;20229;49.856;19.030;2024-01-06T06:10:44;100561.72;;;3.24;100.00
33949;BME280;20229;49.856;19.030;2024-01-06T06:16:11;100550.02;;;3.25;100.00
33949;BME280;20229;49.856;19.030;2024-01-06T06:21:28;100540.05;;;3.27;100.00
33949;BME280;20229;49.856;19.030;2024-01-06T06:26:42;100540.02;;;3.29;100.00
33949;BME280;20229;49.856;19.030;2024-01-06T06:31:57;100542.60;;;3.32;100.00
33949;BME280;20229;49.856;19.030;2024-01-06T06:37:12;100540.83;;;3.32;100.00
33949;BME280;20229;49.856;19.030;2024-01-06T06:42:27;100546.11;;;3.35;100.00
33949;BME280;20229;49.856;19.030;2024-01-06T06:47:41;100549.65;;;3.38;100.00
33949;BME280;20229;49.856;19.030;2024-01-06T06:52:55;100561.23;;;3.41;100.00
33949;BME280;20229;49.856;19.030;2024-01-06T06:58:09;100551.33;;;3.42;100.00
33949;BME280;20229;49.856;19.030;2024-01-06T07:03:24;100552.13;;;3.45;100.00
33949;BME280;20229;49.856;19.030;2024-01-06T07:08:39;100558.45;;;3.44;100.00
33949;BME280;20229;49.856;19.030;2024-01-06T07:13:53;100554.79;;;3.47;100.00
33949;BME280;20229;49.856;19.030;2024-01-06T07:19:07;100557.34;;;3.51;100.00
33949;BME280;20229;49.856;19.030;2024-01-06T07:24:21;100558.05;;;3.58;100.00
33949;BME280;20229;49.856;19.030;2024-01-06T07:29:35;100555.20;;;3.63;100.00
33949;BME280;20229;49.856;19.030;2024-01-06T07:34:51;100569.30;;;3.72;100.00
33949;BME280;20229;49.856;19.030;2024-01-06T07:40:07;100564.52;;;3.82;100.00
33949;BME280;20229;49.856;19.030;2024-01-06T07:45:21;100570.41;;;3.95;100.00
33949;BME280;20229;49.856;19.030;2024-01-06T07:50:35;100574.77;;;3.99;100.00
33949;BME280;20229;49.856;19.030;2024-01-06T07:55:51;100577.34;;;4.03;100.00
33949;BME280;20229;49.856;19.030;2024-01-06T08:01:04;100582.68;;;4.05;100.00
33949;BME280;20229;49.856;19.030;2024-01-06T08:06:19;100582.52;;;4.10;100.00
33949;BME280;20229;49.856;19.030;2024-01-06T08:11:33;100590.50;;;4.14;100.00
33949;BME280;20229;49.856;19.030;2024-01-06T08:16:47;100599.30;;;4.21;100.00
33949;BME280;20229;49.856;19.030;2024-01-06T08:22:01;100602.80;;;4.24;100.00
33949;BME280;20229;49.856;19.030;2024-01-06T08:27:15;100606.28;;;4.28;100.00
33949;BME280;20229;49.856;19.030;2024-01-06T08:32:33;100606.22;;;4.29;100.00
33949;BME280;20229;49.856;19.030;2024-01-06T08:37:50;100604.23;;;4.35;100.00
33949;BME280;20229;49.856;19.030;2024-01-06T08:43:04;100610.49;;;4.37;100.00
33949;BME280;20229;49.856;19.030;2024-01-06T08:48:18;100611.34;;;4.39;100.00
33949;BME280;20229;49.856;19.030;2024-01-06T08:53:32;100611.24;;;4.42;100.00
33949;BME280;20229;49.856;19.030;2024-01-06T08:58:46;100609.35;;;4.44;100.00
33949;BME280;20229;49.856;19.030;2024-01-06T09:04:00;100612.80;;;4.49;100.00
33949;BME280;20229;49.856;19.030;2024-01-06T09:09:14;100610.62;;;4.60;100.00
33949;BME280;20229;49.856;19.030;2024-01-06T09:14:28;100612.99;;;4.69;100.00
33949;BME280;20229;49.856;19.030;2024-01-06T09:19:43;100616.35;;;4.77;100.00
33949;BME280;20229;49.856;19.030;2024-01-06T09:24:57;100614.52;;;4.78;100.00
33949;BME280;20229;49.856;19.030;2024-01-06T09:30:13;100608.95;;;4.83;100.00
33949;BME280;20229;49.856;19.030;2024-01-06T09:35:29;100612.43;;;4.86;100.00
33949;BME280;20229;49.856;19.030;2024-01-06T09:40:44;100610.51;;;4.90;100.00
33949;BME280;20229;49.856;19.030;2024-01-06T09:46:11;100605.83;;;4.95;100.00
33949;BME280;20229;49.856;19.030;2024-01-06T09:51:58;100620.27;;;4.94;100.00
33949;BME280;20229;49.856;19.030;2024-01-06T09:57:13;100611.11;;;4.98;100.00
33949;BME280;20229;49.856;19.030;2024-01-06T10:02:28;100622.05;;;4.95;100.00
33949;BME280;20229;49.856;19.030;2024-01-06T10:10:55;100621.83;;;5.01;100.00
33949;BME280;20229;49.856;19.030;2024-01-06T10:16:21;100621.93;;;4.98;100.00
33949;BME280;20229;49.856;19.030;2024-01-06T10:21:36;100625.38;;;5.03;100.00
33949;BME280;20229;49.856;19.030;2024-01-06T10:26:51;100623.55;;;5.03;100.00
33949;BME280;20229;49.856;19.030;2024-01-06T10:32:06;100621.52;;;5.10;100.00
33949;BME280;20229;49.856;19.030;2024-01-06T10:37:23;100605.19;;;5.13;100.00
33949;BME280;20229;49.856;19.030;2024-01-06T10:42:40;100605.78;;;5.21;100.00
33949;BME280;20229;49.856;19.030;2024-01-06T10:47:55;100609.22;;;5.26;100.00
33949;BME280;20229;49.856;19.030;2024-01-06T10:53:11;100606.37;;;5.30;100.00
33949;BME280;20229;49.856;19.030;2024-01-06T10:58:27;100611.75;;;5.31;100.00
33949;BME280;20229;49.856;19.030;2024-01-06T11:03:42;100606.27;;;5.33;100.00
33949;BME280;20229;49.856;19.030;2024-01-06T11:09:04;100609.04;;;5.31;100.00
33949;BME280;20229;49.856;19.030;2024-01-06T11:14:23;100604.40;;;5.35;100.00
33949;BME280;20229;49.856;19.030;2024-01-06T11:19:45;100605.20;;;5.37;100.00
33949;BME280;20229;49.856;19.030;2024-01-06T11:25:05;100600.70;;;5.37;100.00
33949;BME280;20229;49.856;19.030;2024-01-06T11:30:25;100589.15;;;5.32;100.00
33949;BME280;20229;49.856;19.030;2024-01-06T11:35:39;100587.39;;;5.31;100.00
33949;BME280;20229;49.856;19.030;2024-01-06T11:40:54;100594.52;;;5.34;100.00
33949;BME280;20229;49.856;19.030;2024-01-06T11:46:09;100589.80;;;5.39;100.00
33949;BME280;20229;49.856;19.030;2024-01-06T11:51:26;100596.07;;;5.41;100.00
33949;BME280;20229;49.856;19.030;2024-01-06T11:56:40;100601.80;;;5.32;100.00
33949;BME280;20229;49.856;19.030;2024-01-06T12:01:54;100610.03;;;5.28;100.00
33949;BME280;20229;49.856;19.030;2024-01-06T12:07:09;100602.89;;;5.26;100.00
33949;BME280;20229;49.856;19.030;2024-01-06T12:12:26;100610.24;;;5.22;100.00
33949;BME280;20229;49.856;19.030;2024-01-06T12:17:40;100584.79;;;5.03;100.00
33949;BME280;20229;49.856;19.030;2024-01-06T12:22:56;100615.75;;;5.19;100.00
33949;BME280;20229;49.856;19.030;2024-01-06T12:28:15;100610.59;;;5.13;100.00
33949;BME280;20229;49.856;19.030;2024-01-06T12:33:30;100616.91;;;5.12;100.00
33949;BME280;20229;49.856;19.030;2024-01-06T12:38:51;100607.88;;;5.13;100.00
33949;BME280;20229;49.856;19.030;2024-01-06T12:44:05;100614.17;;;5.14;100.00
33949;BME280;20229;49.856;19.030;2024-01-06T12:49:20;100623.07;;;5.17;100.00
33949;BME280;20229;49.856;19.030;2024-01-06T12:54:34;100622.30;;;5.14;100.00
33949;BME280;20229;49.856;19.030;2024-01-06T12:59:48;100619.63;;;5.12;100.00
33949;BME280;20229;49.856;19.030;2024-01-06T13:05:03;100618.82;;;5.10;100.00
33949;BME280;20229;49.856;19.030;2024-01-06T13:10:19;100612.45;;;5.11;100.00
33949;BME280;20229;49.856;19.030;2024-01-06T13:15:33;100613.44;;;5.09;100.00
33949;BME280;20229;49.856;19.030;2024-01-06T13:20:46;100613.58;;;5.06;100.00
33949;BME280;20229;49.856;19.030;2024-01-06T13:26:01;100615.43;;;5.03;100.00
33949;BME280;20229;49.856;19.030;2024-01-06T13:31:17;100625.48;;;5.00;100.00
33949;BME280;20229;49.856;19.030;2024-01-06T13:36:34;100629.95;;;5.01;100.00
33949;BME280;20229;49.856;19.030;2024-01-06T13:41:48;100629.03;;;5.02;100.00
33949;BME280;20229;49.856;19.030;2024-01-06T13:47:03;100640.73;;;5.02;100.00
33949;BME280;20229;49.856;19.030;2024-01-06T13:52:18;100642.42;;;5.05;100.00
33949;BME280;20229;49.856;19.030;2024-01-06T13:57:32;100639.88;;;5.00;100.00
33949;BME280;20229;49.856;19.030;2024-01-06T14:02:46;100642.70;;;4.97;100.00
33949;BME280;20229;49.856;19.030;2024-01-06T14:08:01;100647.42;;;4.91;100.00
33949;BME280;20229;49.856;19.030;2024-01-06T14:13:15;100661.95;;;4.88;100.00
33949;BME280;20229;49.856;19.030;2024-01-06T14:18:30;100665.64;;;4.86;100.00
33949;BME280;20229;49.856;19.030;2024-01-06T14:23:45;100672.72;;;4.90;100.00
33949;BME280;20229;49.856;19.030;2024-01-06T14:28:59;100668.34;;;4.86;100.00
33949;BME280;20229;49.856;19.030;2024-01-06T14:34:14;100666.59;;;4.85;100.00
33949;BME280;20229;49.856;19.030;2024-01-06T14:39:28;100669.40;;;4.82;100.00
33949;BME280;20229;49.856;19.030;2024-01-06T14:44:43;100674.80;;;4.82;100.00
33949;BME280;20229;49.856;19.030;2024-01-06T14:49:57;100680.20;;;4.82;100.00
33949;BME280;20229;49.856;19.030;2024-01-06T14:55:11;100680.20;;;4.82;100.00
33949;BME280;20229;49.856;19.030;2024-01-06T15:00:27;100687.58;;;4.76;100.00
33949;BME280;20229;49.856;19.030;2024-01-06T15:05:41;100695.78;;;4.73;100.00
33949;BME280;20229;49.856;19.030;2024-01-06T15:10:55;100666.73;;;4.52;100.00
33949;BME280;20229;49.856;19.030;2024-01-06T15:16:09;100706.66;;;4.72;100.00
33949;BME280;20229;49.856;19.030;2024-01-06T15:21:23;100708.65;;;4.67;100.00
33949;BME280;20229;49.856;19.030;2024-01-06T15:26:41;100708.75;;;4.64;100.00
33949;BME280;20229;49.856;19.030;2024-01-06T15:31:55;100713.46;;;4.57;100.00
33949;BME280;20229;49.856;19.030;2024-01-06T15:37:10;100705.44;;;4.54;100.00
33949;BME280;20229;49.856;19.030;2024-01-06T15:42:25;100709.90;;;4.55;100.00
33949;BME280;20229;49.856;19.030;2024-01-06T15:47:39;100706.47;;;4.50;100.00
33949;BME280;20229;49.856;19.030;2024-01-06T15:52:53;100706.74;;;4.41;100.00
33949;BME280;20229;49.856;19.030;2024-01-06T15:58:08;100709.60;;;4.36;100.00
33949;BME280;20229;49.856;19.030;2024-01-06T16:03:22;100715.98;;;4.34;100.00
33949;BME280;20229;49.856;19.030;2024-01-06T16:08:36;100704.38;;;4.30;100.00
33949;BME280;20229;49.856;19.030;2024-01-06T16:13:50;100714.39;;;4.26;100.00
33949;BME280;20229;49.856;19.030;2024-01-06T16:19:06;100710.81;;;4.26;100.00
33949;BME280;20229;49.856;19.030;2024-01-06T16:24:20;100719.90;;;4.23;100.00
33949;BME280;20229;49.856;19.030;2024-01-06T16:29:41;100723.69;;;4.18;100.00
33949;BME280;20229;49.856;19.030;2024-01-06T16:34:55;100723.91;;;4.10;100.00
33949;BME280;20229;49.856;19.030;2024-01-06T16:40:10;100724.09;;;4.04;100.00
33949;BME280;20229;49.856;19.030;2024-01-06T16:45:24;100720.53;;;4.02;100.00
33949;BME280;20229;49.856;19.030;2024-01-06T16:50:38;100722.41;;;4.00;100.00
33949;BME280;20229;49.856;19.030;2024-01-06T16:55:52;100728.13;;;3.89;100.00
33949;BME280;20229;49.856;19.030;2024-01-06T17:01:07;100730.11;;;3.82;100.00
33949;BME280;20229;49.856;19.030;2024-01-06T17:06:21;100741.16;;;3.73;100.00
33949;BME280;20229;49.856;19.030;2024-01-06T17:11:36;100742.98;;;3.73;100.00
33949;BME280;20229;49.856;19.030;2024-01-06T17:16:50;100752.97;;;3.69;100.00
33949;BME280;20229;49.856;19.030;2024-01-06T17:22:04;100752.23;;;3.64;100.00
33949;BME280;20229;49.856;19.030;2024-01-06T17:27:18;100752.30;;;3.61;100.00
33949;BME280;20229;49.856;19.030;2024-01-06T17:32:32;100763.34;;;3.52;100.00
33949;BME280;20229;49.856;19.030;2024-01-06T17:37:49;100756.33;;;3.45;100.00
33949;BME280;20229;49.856;19.030;2024-01-06T17:43:03;100751.08;;;3.39;100.00
33949;BME280;20229;49.856;19.030;2024-01-06T17:48:17;100753.86;;;3.35;100.00
33949;BME280;20229;49.856;19.030;2024-01-06T17:53:31;100758.50;;;3.30;100.00
33949;BME280;20229;49.856;19.030;2024-01-06T17:58:46;100765.92;;;3.22;100.00
33949;BME280;20229;49.856;19.030;2024-01-06T18:04:07;100772.27;;;3.20;100.00
33949;BME280;20229;49.856;19.030;2024-01-06T18:09:21;100762.51;;;3.14;100.00
33949;BME280;20229;49.856;19.030;2024-01-06T18:14:35;100767.20;;;3.07;100.00
33949;BME280;20229;49.856;19.030;2024-01-06T18:19:50;100776.23;;;3.05;100.00
33949;BME280;20229;49.856;19.030;2024-01-06T18:25:04;100771.75;;;3.04;100.00
33949;BME280;20229;49.856;19.030;2024-01-06T18:30:18;100770.23;;;2.94;100.00
33949;BME280;20229;49.856;19.030;2024-01-06T18:35:32;100776.63;;;2.88;100.00
33949;BME280;20229;49.856;19.030;2024-01-06T18:40:46;100782.16;;;2.83;100.00
33949;BME280;20229;49.856;19.030;2024-01-06T18:46:01;100783.96;;;2.83;100.00
33949;BME280;20229;49.856;19.030;2024-01-06T18:51:15;100777.70;;;2.81;100.00
33949;BME280;20229;49.856;19.030;2024-01-06T18:56:30;100781.42;;;2.75;100.00
33949;BME280;20229;49.856;19.030;2024-01-06T19:01:44;100783.30;;;2.72;100.00
33949;BME280;20229;49.856;19.030;2024-01-06T19:07:00;100785.28;;;2.65;100.00
33949;BME280;20229;49.856;19.030;2024-01-06T19:12:14;100787.23;;;2.57;100.00
33949;BME280;20229;49.856;19.030;2024-01-06T19:17:30;100789.93;;;2.57;100.00
33949;BME280;20229;49.856;19.030;2024-01-06T19:22:44;100790.98;;;2.50;100.00
33949;BME280;20229;49.856;19.030;2024-01-06T19:27:58;100783.96;;;2.43;100.00
33949;BME280;20229;49.856;19.030;2024-01-06T19:33:12;100794.80;;;2.39;100.00
33949;BME280;20229;49.856;19.030;2024-01-06T19:38:27;100796.67;;;2.36;100.00
33949;BME280;20229;49.856;19.030;2024-01-06T19:43:41;100794.03;;;2.34;100.00
33949;BME280;20229;49.856;19.030;2024-01-06T19:48:59;100795.08;;;2.27;100.00
33949;BME280;20229;49.856;19.030;2024-01-06T19:54:14;100794.21;;;2.25;100.00
33949;BME280;20229;49.856;19.030;2024-01-06T19:59:29;100792.54;;;2.20;100.00
33949;BME280;20229;49.856;19.030;2024-01-06T20:04:42;100793.54;;;2.14;100.00
33949;BME280;20229;49.856;19.030;2024-01-06T20:09:57;100798.93;;;2.14;100.00
33949;BME280;20229;49.856;19.030;2024-01-06T20:15:11;100795.37;;;2.12;100.00
33949;BME280;20229;49.856;19.030;2024-01-06T20:20:26;100796.35;;;2.08;100.00
33949;BME280;20229;49.856;19.030;2024-01-06T20:25:41;100800.96;;;2.03;100.00
33949;BME280;20229;49.856;19.030;2024-01-06T20:30:57;100804.65;;;1.99;100.00
33949;BME280;20229;49.856;19.030;2024-01-06T20:36:11;100804.80;;;1.89;100.00
33949;BME280;20229;49.856;19.030;2024-01-06T20:41:28;100803.97;;;1.87;100.00
33949;BME280;20229;49.856;19.030;2024-01-06T20:46:42;100812.10;;;1.83;100.00
33949;BME280;20229;49.856;19.030;2024-01-06T20:51:57;100805.93;;;1.78;100.00
33949;BME280;20229;49.856;19.030;2024-01-06T20:57:11;100810.49;;;1.74;100.00
33949;BME280;20229;49.856;19.030;2024-01-06T21:02:25;100803.39;;;1.70;100.00
33949;BME280;20229;49.856;19.030;2024-01-06T21:07:39;100806.09;;;1.70;100.00
33949;BME280;20229;49.856;19.030;2024-01-06T21:12:59;100815.05;;;1.69;100.00
33949;BME280;20229;49.856;19.030;2024-01-06T21:18:14;100817.88;;;1.63;100.00
33949;BME280;20229;49.856;19.030;2024-01-06T21:23:28;100817.01;;;1.61;100.00
33949;BME280;20229;49.856;19.030;2024-01-06T21:28:42;100815.25;;;1.58;100.00
33949;BME280;20229;49.856;19.030;2024-01-06T21:33:56;100827.81;;;1.59;100.00
33949;BME280;20229;49.856;19.030;2024-01-06T21:39:13;100824.29;;;1.56;100.00
33949;BME280;20229;49.856;19.030;2024-01-06T21:44:27;100822.48;;;1.56;100.00
33949;BME280;20229;49.856;19.030;2024-01-06T21:49:41;100831.48;;;1.54;100.00
33949;BME280;20229;49.856;19.030;2024-01-06T21:54:55;100828.75;;;1.55;100.00
33949;BME280;20229;49.856;19.030;2024-01-06T22:00:11;100829.72;;;1.53;100.00
33949;BME280;20229;49.856;19.030;2024-01-06T22:05:32;100830.60;;;1.52;100.00
33949;BME280;20229;49.856;19.030;2024-01-06T22:10:47;100832.66;;;1.37;100.00
33949;BME280;20229;49.856;19.030;2024-01-06T22:16:03;100832.73;;;1.34;100.00
33949;BME280;20229;49.856;19.030;2024-01-06T22:21:17;100832.77;;;1.31;100.00
33949;BME280;20229;49.856;19.030;2024-01-06T22:26:31;100831.84;;;1.32;100.00
33949;BME280;20229;49.856;19.030;2024-01-06T22:31:45;100833.66;;;1.32;100.00
33949;BME280;20229;49.856;19.030;2024-01-06T22:37:01;100826.52;;;1.29;100.00
33949;BME280;20229;49.856;19.030;2024-01-06T22:42:15;100828.33;;;1.29;100.00
33949;BME280;20229;49.856;19.030;2024-01-06T22:47:29;100831.98;;;1.25;100.00
33949;BME280;20229;49.856;19.030;2024-01-06T22:52:43;100834.62;;;1.28;100.00
33949;BME280;20229;49.856;19.030;2024-01-06T22:57:59;100837.49;;;1.17;100.00
33949;BME280;20229;49.856;19.030;2024-01-06T23:03:13;100853.00;;;0.98;100.00
33949;BME280;20229;49.856;19.030;2024-01-06T23:08:27;100844.05;;;0.98;100.00
33949;BME280;20229;49.856;19.030;2024-01-06T23:13:41;100844.09;;;0.94;100.00
33949;BME280;20229;49.856;19.030;2024-01-06T23:18:56;100845.93;;;0.92;100.00
33949;BME280;20229;49.856;19.030;2024-01-06T23:24:13;100851.34;;;0.89;100.00
33949;BME280;20229;49.856;19.030;2024-01-06T23:29:27;100855.00;;;0.85;100.00
33949;BME280;20229;49.856;19.030;2024-01-06T23:34:41;100850.57;;;0.80;100.00
33949;BME280;20229;49.856;19.030;2024-01-06T23:39:55;100856.84;;;0.80;100.00
33949;BME280;20229;49.856;19.030;2024-01-06T23:45:09;100864.89;;;0.82;100.00
33949;BME280;20229;49.856;19.030;2024-01-06T23:50:23;100859.56;;;0.79;100.00
33949;BME280;20229;49.856;19.030;2024-01-06T23:55:37;100862.29;;;0.74;100.00
